sensor_id;sensor_type;location;lat;lon;timestamp;P1;durP1;ratioP1;P2;durP2;ratioP2
11823;SDS011;5969;50.780;7.726;2024-01-30T00:00:53;11.95;;;10.63;;
11823;SDS011;5969;50.780;7.726;2024-01-30T00:03:20;12.23;;;9.93;;
11823;SDS011;5969;50.780;7.726;2024-01-30T00:05:47;13.32;;;9.93;;
11823;SDS011;5969;50.780;7.726;2024-01-30T00:08:15;12.90;;;10.13;;
11823;SDS011;5969;50.780;7.726;2024-01-30T00:10:42;11.63;;;10.40;;
11823;SDS011;5969;50.780;7.726;2024-01-30T00:13:10;13.18;;;11.35;;
11823;SDS011;5969;50.780;7.726;2024-01-30T00:15:39;15.73;;;10.38;;
11823;SDS011;5969;50.780;7.726;2024-01-30T00:18:06;14.02;;;11.20;;
11823;SDS011;5969;50.780;7.726;2024-01-30T00:20:33;12.15;;;10.82;;
11823;SDS011;5969;50.780;7.726;2024-01-30T00:23:00;13.77;;;11.52;;
11823;SDS011;5969;50.780;7.726;2024-01-30T00:25:27;13.23;;;11.00;;
11823;SDS011;5969;50.780;7.726;2024-01-30T00:27:55;12.27;;;10.60;;
11823;SDS011;5969;50.780;7.726;2024-01-30T00:30:23;14.60;;;11.27;;
11823;SDS011;5969;50.780;7.726;2024-01-30T00:32:50;14.40;;;11.30;;
11823;SDS011;5969;50.780;7.726;2024-01-30T00:35:18;12.88;;;10.48;;
11823;SDS011;5969;50.780;7.726;2024-01-30T00:37:47;13.90;;;11.88;;
11823;SDS011;5969;50.780;7.726;2024-01-30T00:40:14;14.50;;;11.50;;
11823;SDS011;5969;50.780;7.726;2024-01-30T00:42:43;13.70;;;11.38;;
11823;SDS011;5969;50.780;7.726;2024-01-30T00:45:11;13.60;;;11.35;;
11823;SDS011;5969;50.780;7.726;2024-01-30T00:47:40;13.75;;;10.75;;
11823;SDS011;5969;50.780;7.726;2024-01-30T00:50:07;12.38;;;10.52;;
11823;SDS011;5969;50.780;7.726;2024-01-30T00:52:35;14.05;;;11.13;;
11823;SDS011;5969;50.780;7.726;2024-01-30T00:55:04;12.88;;;11.20;;
11823;SDS011;5969;50.780;7.726;2024-01-30T00:57:31;13.30;;;11.55;;
11823;SDS011;5969;50.780;7.726;2024-01-30T00:59:59;16.48;;;11.43;;
11823;SDS011;5969;50.780;7.726;2024-01-30T01:02:26;13.95;;;10.57;;
11823;SDS011;5969;50.780;7.726;2024-01-30T01:04:54;14.38;;;11.57;;
11823;SDS011;5969;50.780;7.726;2024-01-30T01:07:21;14.82;;;11.50;;
11823;SDS011;5969;50.780;7.726;2024-01-30T01:09:48;12.52;;;11.18;;
11823;SDS011;5969;50.780;7.726;2024-01-30T01:12:15;12.85;;;10.65;;
11823;SDS011;5969;50.780;7.726;2024-01-30T01:14:42;14.60;;;11.50;;
11823;SDS011;5969;50.780;7.726;2024-01-30T01:17:09;14.43;;;11.50;;
11823;SDS011;5969;50.780;7.726;2024-01-30T01:19:37;15.68;;;11.85;;
11823;SDS011;5969;50.780;7.726;2024-01-30T01:22:05;15.63;;;11.95;;
11823;SDS011;5969;50.780;7.726;2024-01-30T01:24:33;13.20;;;10.68;;
11823;SDS011;5969;50.780;7.726;2024-01-30T01:27:00;14.02;;;11.55;;
11823;SDS011;5969;50.780;7.726;2024-01-30T01:29:27;14.18;;;11.38;;
11823;SDS011;5969;50.780;7.726;2024-01-30T01:31:55;13.45;;;10.30;;
11823;SDS011;5969;50.780;7.726;2024-01-30T01:34:22;13.48;;;10.45;;
11823;SDS011;5969;50.780;7.726;2024-01-30T01:36:49;13.30;;;11.43;;
11823;SDS011;5969;50.780;7.726;2024-01-30T01:39:18;12.60;;;11.02;;
11823;SDS011;5969;50.780;7.726;2024-01-30T01:41:45;13.80;;;10.93;;
11823;SDS011;5969;50.780;7.726;2024-01-30T01:44:12;14.57;;;11.25;;
11823;SDS011;5969;50.780;7.726;2024-01-30T01:46:39;13.38;;;11.02;;
11823;SDS011;5969;50.780;7.726;2024-01-30T01:49:07;12.77;;;10.98;;
11823;SDS011;5969;50.780;7.726;2024-01-30T01:51:35;15.40;;;10.98;;
11823;SDS011;5969;50.780;7.726;2024-01-30T01:54:04;12.07;;;10.82;;
11823;SDS011;5969;50.780;7.726;2024-01-30T01:56:32;13.48;;;10.75;;
11823;SDS011;5969;50.780;7.726;2024-01-30T01:59:01;15.32;;;11.50;;
11823;SDS011;5969;50.780;7.726;2024-01-30T02:01:31;12.30;;;10.80;;
11823;SDS011;5969;50.780;7.726;2024-01-30T02:03:59;13.75;;;10.82;;
11823;SDS011;5969;50.780;7.726;2024-01-30T02:06:26;14.07;;;11.43;;
11823;SDS011;5969;50.780;7.726;2024-01-30T02:08:54;13.80;;;10.52;;
11823;SDS011;5969;50.780;7.726;2024-01-30T02:11:21;14.10;;;11.30;;
11823;SDS011;5969;50.780;7.726;2024-01-30T02:13:50;14.32;;;10.40;;
11823;SDS011;5969;50.780;7.726;2024-01-30T02:16:17;13.93;;;11.13;;
11823;SDS011;5969;50.780;7.726;2024-01-30T02:18:45;13.18;;;11.15;;
11823;SDS011;5969;50.780;7.726;2024-01-30T02:21:13;13.32;;;11.02;;
11823;SDS011;5969;50.780;7.726;2024-01-30T02:23:41;15.20;;;11.20;;
11823;SDS011;5969;50.780;7.726;2024-01-30T02:26:10;13.82;;;10.63;;
11823;SDS011;5969;50.780;7.726;2024-01-30T02:28:37;14.13;;;10.90;;
11823;SDS011;5969;50.780;7.726;2024-01-30T02:31:04;14.52;;;10.93;;
11823;SDS011;5969;50.780;7.726;2024-01-30T02:33:31;14.57;;;11.20;;
11823;SDS011;5969;50.780;7.726;2024-01-30T02:35:59;15.23;;;11.52;;
11823;SDS011;5969;50.780;7.726;2024-01-30T02:38:27;15.35;;;12.40;;
11823;SDS011;5969;50.780;7.726;2024-01-30T02:40:55;14.20;;;11.68;;
11823;SDS011;5969;50.780;7.726;2024-01-30T02:43:22;14.70;;;10.43;;
11823;SDS011;5969;50.780;7.726;2024-01-30T02:45:50;14.85;;;11.50;;
11823;SDS011;5969;50.780;7.726;2024-01-30T02:48:17;12.77;;;11.38;;
11823;SDS011;5969;50.780;7.726;2024-01-30T02:50:44;12.85;;;11.00;;
11823;SDS011;5969;50.780;7.726;2024-01-30T02:53:12;13.25;;;10.88;;
11823;SDS011;5969;50.780;7.726;2024-01-30T02:55:40;14.80;;;11.90;;
11823;SDS011;5969;50.780;7.726;2024-01-30T02:58:07;12.52;;;10.73;;
11823;SDS011;5969;50.780;7.726;2024-01-30T03:00:35;14.40;;;12.10;;
11823;SDS011;5969;50.780;7.726;2024-01-30T03:03:02;16.20;;;11.40;;
11823;SDS011;5969;50.780;7.726;2024-01-30T03:05:30;15.95;;;11.38;;
11823;SDS011;5969;50.780;7.726;2024-01-30T03:07:57;14.02;;;10.80;;
11823;SDS011;5969;50.780;7.726;2024-01-30T03:10:25;13.30;;;10.73;;
11823;SDS011;5969;50.780;7.726;2024-01-30T03:12:53;13.68;;;11.98;;
11823;SDS011;5969;50.780;7.726;2024-01-30T03:15:20;12.63;;;10.95;;
11823;SDS011;5969;50.780;7.726;2024-01-30T03:17:48;14.02;;;11.23;;
11823;SDS011;5969;50.780;7.726;2024-01-30T03:20:15;14.18;;;11.48;;
11823;SDS011;5969;50.780;7.726;2024-01-30T03:22:42;13.00;;;10.60;;
11823;SDS011;5969;50.780;7.726;2024-01-30T03:25:10;11.55;;;10.35;;
11823;SDS011;5969;50.780;7.726;2024-01-30T03:27:37;12.75;;;10.48;;
11823;SDS011;5969;50.780;7.726;2024-01-30T03:30:06;11.10;;;9.85;;
11823;SDS011;5969;50.780;7.726;2024-01-30T03:32:34;12.82;;;11.43;;
11823;SDS011;5969;50.780;7.726;2024-01-30T03:35:01;15.63;;;11.18;;
11823;SDS011;5969;50.780;7.726;2024-01-30T03:37:29;13.13;;;10.75;;
11823;SDS011;5969;50.780;7.726;2024-01-30T03:39:56;15.02;;;12.30;;
11823;SDS011;5969;50.780;7.726;2024-01-30T03:42:23;13.88;;;11.23;;
11823;SDS011;5969;50.780;7.726;2024-01-30T03:44:50;13.57;;;11.00;;
11823;SDS011;5969;50.780;7.726;2024-01-30T03:47:20;13.57;;;11.25;;
11823;SDS011;5969;50.780;7.726;2024-01-30T03:49:49;12.00;;;10.55;;
11823;SDS011;5969;50.780;7.726;2024-01-30T03:52:16;12.35;;;10.73;;
11823;SDS011;5969;50.780;7.726;2024-01-30T03:54:43;13.30;;;10.48;;
11823;SDS011;5969;50.780;7.726;2024-01-30T03:57:11;12.57;;;10.65;;
11823;SDS011;5969;50.780;7.726;2024-01-30T03:59:38;13.80;;;11.05;;
11823;SDS011;5969;50.780;7.726;2024-01-30T04:02:09;13.82;;;10.77;;
11823;SDS011;5969;50.780;7.726;2024-01-30T04:04:38;14.35;;;10.95;;
11823;SDS011;5969;50.780;7.726;2024-01-30T04:07:05;12.25;;;10.95;;
11823;SDS011;5969;50.780;7.726;2024-01-30T04:09:32;14.82;;;11.50;;
11823;SDS011;5969;50.780;7.726;2024-01-30T04:11:59;14.98;;;11.80;;
11823;SDS011;5969;50.780;7.726;2024-01-30T04:14:28;13.48;;;11.13;;
11823;SDS011;5969;50.780;7.726;2024-01-30T04:16:55;14.95;;;11.65;;
11823;SDS011;5969;50.780;7.726;2024-01-30T04:19:22;13.63;;;10.95;;
11823;SDS011;5969;50.780;7.726;2024-01-30T04:21:51;16.58;;;11.07;;
11823;SDS011;5969;50.780;7.726;2024-01-30T04:24:18;15.18;;;11.35;;
11823;SDS011;5969;50.780;7.726;2024-01-30T04:26:45;14.55;;;11.30;;
11823;SDS011;5969;50.780;7.726;2024-01-30T04:29:12;14.75;;;11.30;;
11823;SDS011;5969;50.780;7.726;2024-01-30T04:31:39;17.05;;;12.40;;
11823;SDS011;5969;50.780;7.726;2024-01-30T04:34:07;13.20;;;11.23;;
11823;SDS011;5969;50.780;7.726;2024-01-30T04:36:34;14.15;;;11.63;;
11823;SDS011;5969;50.780;7.726;2024-01-30T04:39:02;13.98;;;11.63;;
11823;SDS011;5969;50.780;7.726;2024-01-30T04:41:30;14.30;;;11.07;;
11823;SDS011;5969;50.780;7.726;2024-01-30T04:43:57;13.43;;;10.98;;
11823;SDS011;5969;50.780;7.726;2024-01-30T04:46:24;15.63;;;11.80;;
11823;SDS011;5969;50.780;7.726;2024-01-30T04:48:51;12.90;;;11.13;;
11823;SDS011;5969;50.780;7.726;2024-01-30T04:51:19;13.40;;;10.95;;
11823;SDS011;5969;50.780;7.726;2024-01-30T04:53:46;16.33;;;11.77;;
11823;SDS011;5969;50.780;7.726;2024-01-30T04:56:14;15.77;;;11.93;;
11823;SDS011;5969;50.780;7.726;2024-01-30T04:58:42;13.13;;;11.35;;
11823;SDS011;5969;50.780;7.726;2024-01-30T05:01:09;14.18;;;11.45;;
11823;SDS011;5969;50.780;7.726;2024-01-30T05:03:36;16.67;;;11.60;;
11823;SDS011;5969;50.780;7.726;2024-01-30T05:06:05;12.35;;;10.95;;
11823;SDS011;5969;50.780;7.726;2024-01-30T05:08:33;13.75;;;11.05;;
11823;SDS011;5969;50.780;7.726;2024-01-30T05:11:01;14.02;;;11.25;;
11823;SDS011;5969;50.780;7.726;2024-01-30T05:13:30;18.20;;;12.32;;
11823;SDS011;5969;50.780;7.726;2024-01-30T05:15:57;15.18;;;10.82;;
11823;SDS011;5969;50.780;7.726;2024-01-30T05:18:24;12.60;;;11.18;;
11823;SDS011;5969;50.780;7.726;2024-01-30T05:20:51;13.35;;;11.15;;
11823;SDS011;5969;50.780;7.726;2024-01-30T05:23:19;17.67;;;12.32;;
11823;SDS011;5969;50.780;7.726;2024-01-30T05:25:46;13.57;;;11.68;;
11823;SDS011;5969;50.780;7.726;2024-01-30T05:28:13;13.70;;;11.23;;
11823;SDS011;5969;50.780;7.726;2024-01-30T05:30:42;14.70;;;11.43;;
11823;SDS011;5969;50.780;7.726;2024-01-30T05:33:09;13.85;;;12.18;;
11823;SDS011;5969;50.780;7.726;2024-01-30T05:35:37;14.25;;;11.88;;
11823;SDS011;5969;50.780;7.726;2024-01-30T05:38:04;13.35;;;11.35;;
11823;SDS011;5969;50.780;7.726;2024-01-30T05:40:34;12.68;;;10.98;;
11823;SDS011;5969;50.780;7.726;2024-01-30T05:43:02;12.98;;;11.68;;
11823;SDS011;5969;50.780;7.726;2024-01-30T05:45:29;13.32;;;10.40;;
11823;SDS011;5969;50.780;7.726;2024-01-30T05:47:57;14.10;;;11.43;;
11823;SDS011;5969;50.780;7.726;2024-01-30T05:50:25;13.65;;;11.40;;
11823;SDS011;5969;50.780;7.726;2024-01-30T05:52:52;14.10;;;11.30;;
11823;SDS011;5969;50.780;7.726;2024-01-30T05:55:19;13.77;;;11.85;;
11823;SDS011;5969;50.780;7.726;2024-01-30T05:57:46;13.63;;;11.73;;
11823;SDS011;5969;50.780;7.726;2024-01-30T06:00:16;12.32;;;10.93;;
11823;SDS011;5969;50.780;7.726;2024-01-30T06:02:46;13.40;;;10.63;;
11823;SDS011;5969;50.780;7.726;2024-01-30T06:05:18;12.98;;;10.70;;
11823;SDS011;5969;50.780;7.726;2024-01-30T06:07:45;12.48;;;11.05;;
11823;SDS011;5969;50.780;7.726;2024-01-30T06:10:12;14.95;;;11.05;;
11823;SDS011;5969;50.780;7.726;2024-01-30T06:12:42;13.73;;;10.90;;
11823;SDS011;5969;50.780;7.726;2024-01-30T06:15:10;14.77;;;11.25;;
11823;SDS011;5969;50.780;7.726;2024-01-30T06:17:37;12.30;;;10.73;;
11823;SDS011;5969;50.780;7.726;2024-01-30T06:20:06;12.27;;;10.68;;
11823;SDS011;5969;50.780;7.726;2024-01-30T06:22:35;14.18;;;11.15;;
11823;SDS011;5969;50.780;7.726;2024-01-30T06:25:02;14.77;;;11.23;;
11823;SDS011;5969;50.780;7.726;2024-01-30T06:27:29;14.30;;;11.32;;
11823;SDS011;5969;50.780;7.726;2024-01-30T06:29:56;14.82;;;11.02;;
11823;SDS011;5969;50.780;7.726;2024-01-30T06:32:24;11.70;;;10.30;;
11823;SDS011;5969;50.780;7.726;2024-01-30T06:34:52;15.73;;;11.38;;
11823;SDS011;5969;50.780;7.726;2024-01-30T06:37:19;15.30;;;11.07;;
11823;SDS011;5969;50.780;7.726;2024-01-30T06:39:48;12.50;;;11.05;;
11823;SDS011;5969;50.780;7.726;2024-01-30T06:42:16;12.45;;;10.77;;
11823;SDS011;5969;50.780;7.726;2024-01-30T06:44:46;14.73;;;10.98;;
11823;SDS011;5969;50.780;7.726;2024-01-30T06:47:13;12.85;;;10.38;;
11823;SDS011;5969;50.780;7.726;2024-01-30T06:49:41;15.23;;;13.65;;
11823;SDS011;5969;50.780;7.726;2024-01-30T06:52:11;14.30;;;11.55;;
11823;SDS011;5969;50.780;7.726;2024-01-30T06:54:45;15.32;;;11.70;;
11823;SDS011;5969;50.780;7.726;2024-01-30T06:57:26;13.00;;;11.20;;
11823;SDS011;5969;50.780;7.726;2024-01-30T06:59:56;12.88;;;10.30;;
11823;SDS011;5969;50.780;7.726;2024-01-30T07:02:23;13.27;;;9.63;;
11823;SDS011;5969;50.780;7.726;2024-01-30T07:04:52;14.95;;;11.82;;
11823;SDS011;5969;50.780;7.726;2024-01-30T07:07:19;17.05;;;13.05;;
11823;SDS011;5969;50.780;7.726;2024-01-30T07:09:51;13.25;;;11.82;;
11823;SDS011;5969;50.780;7.726;2024-01-30T07:12:33;15.82;;;12.57;;
11823;SDS011;5969;50.780;7.726;2024-01-30T07:15:04;12.98;;;11.68;;
11823;SDS011;5969;50.780;7.726;2024-01-30T07:17:33;14.82;;;12.07;;
11823;SDS011;5969;50.780;7.726;2024-01-30T07:20:00;11.95;;;10.70;;
11823;SDS011;5969;50.780;7.726;2024-01-30T07:22:34;13.07;;;10.75;;
11823;SDS011;5969;50.780;7.726;2024-01-30T07:25:17;13.65;;;11.55;;
11823;SDS011;5969;50.780;7.726;2024-01-30T07:27:50;13.02;;;10.45;;
11823;SDS011;5969;50.780;7.726;2024-01-30T07:30:17;13.70;;;10.80;;
11823;SDS011;5969;50.780;7.726;2024-01-30T07:32:45;17.65;;;12.05;;
11823;SDS011;5969;50.780;7.726;2024-01-30T07:35:13;19.10;;;10.82;;
11823;SDS011;5969;50.780;7.726;2024-01-30T07:37:41;16.00;;;11.00;;
11823;SDS011;5969;50.780;7.726;2024-01-30T07:40:11;20.30;;;14.93;;
11823;SDS011;5969;50.780;7.726;2024-01-30T07:42:39;24.65;;;17.80;;
11823;SDS011;5969;50.780;7.726;2024-01-30T07:45:10;24.17;;;18.25;;
11823;SDS011;5969;50.780;7.726;2024-01-30T07:47:47;20.35;;;15.07;;
11823;SDS011;5969;50.780;7.726;2024-01-30T07:50:17;13.02;;;10.65;;
11823;SDS011;5969;50.780;7.726;2024-01-30T07:52:51;13.88;;;12.07;;
11823;SDS011;5969;50.780;7.726;2024-01-30T07:58:06;19.92;;;17.73;;
11823;SDS011;5969;50.780;7.726;2024-01-30T08:00:35;18.42;;;15.50;;
11823;SDS011;5969;50.780;7.726;2024-01-30T08:03:02;14.82;;;11.85;;
11823;SDS011;5969;50.780;7.726;2024-01-30T08:05:34;24.35;;;21.75;;
11823;SDS011;5969;50.780;7.726;2024-01-30T08:08:08;22.13;;;19.38;;
11823;SDS011;5969;50.780;7.726;2024-01-30T08:10:38;19.42;;;17.33;;
11823;SDS011;5969;50.780;7.726;2024-01-30T08:13:05;19.58;;;17.30;;
11823;SDS011;5969;50.780;7.726;2024-01-30T08:15:37;15.55;;;13.57;;
11823;SDS011;5969;50.780;7.726;2024-01-30T08:18:08;11.93;;;10.45;;
11823;SDS011;5969;50.780;7.726;2024-01-30T08:20:35;14.00;;;11.25;;
11823;SDS011;5969;50.780;7.726;2024-01-30T08:23:05;17.02;;;14.02;;
11823;SDS011;5969;50.780;7.726;2024-01-30T08:25:38;24.92;;;20.38;;
11823;SDS011;5969;50.780;7.726;2024-01-30T08:28:07;27.00;;;19.70;;
11823;SDS011;5969;50.780;7.726;2024-01-30T08:30:36;19.48;;;12.23;;
11823;SDS011;5969;50.780;7.726;2024-01-30T08:33:06;17.83;;;12.25;;
11823;SDS011;5969;50.780;7.726;2024-01-30T08:35:33;26.75;;;18.00;;
11823;SDS011;5969;50.780;7.726;2024-01-30T08:38:03;20.73;;;16.55;;
11823;SDS011;5969;50.780;7.726;2024-01-30T08:40:36;20.30;;;17.00;;
11823;SDS011;5969;50.780;7.726;2024-01-30T08:43:03;19.40;;;14.70;;
11823;SDS011;5969;50.780;7.726;2024-01-30T08:45:47;15.20;;;11.90;;
11823;SDS011;5969;50.780;7.726;2024-01-30T08:48:17;14.10;;;11.15;;
11823;SDS011;5969;50.780;7.726;2024-01-30T08:50:45;13.02;;;10.07;;
11823;SDS011;5969;50.780;7.726;2024-01-30T08:53:15;14.65;;;10.65;;
11823;SDS011;5969;50.780;7.726;2024-01-30T08:55:48;12.63;;;10.50;;
11823;SDS011;5969;50.780;7.726;2024-01-30T08:58:16;11.65;;;9.32;;
11823;SDS011;5969;50.780;7.726;2024-01-30T09:00:45;10.15;;;8.20;;
11823;SDS011;5969;50.780;7.726;2024-01-30T09:03:16;10.23;;;9.07;;
11823;SDS011;5969;50.780;7.726;2024-01-30T09:05:45;11.95;;;9.88;;
11823;SDS011;5969;50.780;7.726;2024-01-30T09:08:15;13.65;;;9.43;;
11823;SDS011;5969;50.780;7.726;2024-01-30T09:10:42;11.70;;;10.25;;
11823;SDS011;5969;50.780;7.726;2024-01-30T09:13:12;16.83;;;14.25;;
11823;SDS011;5969;50.780;7.726;2024-01-30T09:15:44;14.00;;;11.85;;
11823;SDS011;5969;50.780;7.726;2024-01-30T09:18:16;13.35;;;11.70;;
11823;SDS011;5969;50.780;7.726;2024-01-30T09:20:43;10.30;;;9.20;;
11823;SDS011;5969;50.780;7.726;2024-01-30T09:23:15;9.43;;;7.97;;
11823;SDS011;5969;50.780;7.726;2024-01-30T09:25:44;14.15;;;11.90;;
11823;SDS011;5969;50.780;7.726;2024-01-30T09:28:12;14.38;;;12.88;;
11823;SDS011;5969;50.780;7.726;2024-01-30T09:30:48;16.77;;;12.88;;
11823;SDS011;5969;50.780;7.726;2024-01-30T09:33:16;25.13;;;18.20;;
11823;SDS011;5969;50.780;7.726;2024-01-30T09:35:47;26.35;;;18.63;;
11823;SDS011;5969;50.780;7.726;2024-01-30T09:38:24;19.08;;;15.85;;
11823;SDS011;5969;50.780;7.726;2024-01-30T09:40:54;17.73;;;15.00;;
11823;SDS011;5969;50.780;7.726;2024-01-30T09:43:22;15.35;;;10.32;;
11823;SDS011;5969;50.780;7.726;2024-01-30T09:45:52;11.35;;;9.48;;
11823;SDS011;5969;50.780;7.726;2024-01-30T09:48:22;14.15;;;10.02;;
11823;SDS011;5969;50.780;7.726;2024-01-30T09:50:50;13.70;;;11.13;;
11823;SDS011;5969;50.780;7.726;2024-01-30T09:53:21;15.90;;;12.25;;
11823;SDS011;5969;50.780;7.726;2024-01-30T09:55:49;12.55;;;11.15;;
11823;SDS011;5969;50.780;7.726;2024-01-30T09:58:21;12.20;;;9.80;;
11823;SDS011;5969;50.780;7.726;2024-01-30T10:00:48;13.60;;;12.15;;
11823;SDS011;5969;50.780;7.726;2024-01-30T10:03:16;13.57;;;10.60;;
11823;SDS011;5969;50.780;7.726;2024-01-30T10:05:46;10.45;;;8.30;;
11823;SDS011;5969;50.780;7.726;2024-01-30T10:08:17;9.20;;;7.60;;
11823;SDS011;5969;50.780;7.726;2024-01-30T10:10:45;8.88;;;7.05;;
11823;SDS011;5969;50.780;7.726;2024-01-30T10:13:14;9.48;;;8.45;;
11823;SDS011;5969;50.780;7.726;2024-01-30T10:15:47;9.98;;;8.98;;
11823;SDS011;5969;50.780;7.726;2024-01-30T10:18:17;9.82;;;8.27;;
11823;SDS011;5969;50.780;7.726;2024-01-30T10:20:46;12.85;;;8.93;;
11823;SDS011;5969;50.780;7.726;2024-01-30T10:23:13;11.60;;;8.90;;
11823;SDS011;5969;50.780;7.726;2024-01-30T10:25:41;10.68;;;9.07;;
11823;SDS011;5969;50.780;7.726;2024-01-30T10:28:09;12.23;;;9.75;;
11823;SDS011;5969;50.780;7.726;2024-01-30T10:30:38;9.38;;;8.40;;
11823;SDS011;5969;50.780;7.726;2024-01-30T10:33:19;10.35;;;7.47;;
11823;SDS011;5969;50.780;7.726;2024-01-30T10:35:47;10.50;;;7.25;;
11823;SDS011;5969;50.780;7.726;2024-01-30T10:38:15;9.10;;;8.18;;
11823;SDS011;5969;50.780;7.726;2024-01-30T10:40:45;10.13;;;7.45;;
11823;SDS011;5969;50.780;7.726;2024-01-30T10:43:16;8.65;;;7.22;;
11823;SDS011;5969;50.780;7.726;2024-01-30T10:45:46;9.77;;;7.10;;
11823;SDS011;5969;50.780;7.726;2024-01-30T10:48:16;8.73;;;7.28;;
11823;SDS011;5969;50.780;7.726;2024-01-30T10:50:47;10.75;;;7.03;;
11823;SDS011;5969;50.780;7.726;2024-01-30T10:53:15;8.52;;;6.70;;
11823;SDS011;5969;50.780;7.726;2024-01-30T10:55:43;7.65;;;6.45;;
11823;SDS011;5969;50.780;7.726;2024-01-30T10:58:11;7.78;;;6.93;;
11823;SDS011;5969;50.780;7.726;2024-01-30T11:00:40;8.63;;;6.90;;
11823;SDS011;5969;50.780;7.726;2024-01-30T11:03:10;9.32;;;6.80;;
11823;SDS011;5969;50.780;7.726;2024-01-30T11:05:50;7.25;;;6.10;;
11823;SDS011;5969;50.780;7.726;2024-01-30T11:08:22;7.15;;;6.38;;
11823;SDS011;5969;50.780;7.726;2024-01-30T11:10:56;9.05;;;6.47;;
11823;SDS011;5969;50.780;7.726;2024-01-30T11:13:26;8.20;;;6.70;;
11823;SDS011;5969;50.780;7.726;2024-01-30T11:15:54;8.88;;;7.38;;
11823;SDS011;5969;50.780;7.726;2024-01-30T11:18:24;7.93;;;6.40;;
11823;SDS011;5969;50.780;7.726;2024-01-30T11:20:53;7.97;;;6.47;;
11823;SDS011;5969;50.780;7.726;2024-01-30T11:23:28;7.47;;;5.57;;
11823;SDS011;5969;50.780;7.726;2024-01-30T11:25:56;8.73;;;5.93;;
11823;SDS011;5969;50.780;7.726;2024-01-30T11:28:24;6.65;;;5.57;;
11823;SDS011;5969;50.780;7.726;2024-01-30T11:30:51;6.18;;;5.47;;
11823;SDS011;5969;50.780;7.726;2024-01-30T11:33:35;7.03;;;5.63;;
11823;SDS011;5969;50.780;7.726;2024-01-30T11:36:05;6.13;;;5.25;;
11823;SDS011;5969;50.780;7.726;2024-01-30T11:38:35;8.50;;;5.65;;
11823;SDS011;5969;50.780;7.726;2024-01-30T11:41:02;6.60;;;5.68;;
11823;SDS011;5969;50.780;7.726;2024-01-30T11:43:32;8.70;;;6.13;;
11823;SDS011;5969;50.780;7.726;2024-01-30T11:46:00;7.10;;;5.43;;
11823;SDS011;5969;50.780;7.726;2024-01-30T11:48:27;7.18;;;5.47;;
11823;SDS011;5969;50.780;7.726;2024-01-30T11:50:54;5.63;;;4.93;;
11823;SDS011;5969;50.780;7.726;2024-01-30T11:53:23;6.80;;;5.50;;
11823;SDS011;5969;50.780;7.726;2024-01-30T11:55:51;6.75;;;5.10;;
11823;SDS011;5969;50.780;7.726;2024-01-30T11:58:18;7.22;;;5.22;;
11823;SDS011;5969;50.780;7.726;2024-01-30T12:03:50;6.47;;;5.22;;
11823;SDS011;5969;50.780;7.726;2024-01-30T12:06:17;8.18;;;5.35;;
11823;SDS011;5969;50.780;7.726;2024-01-30T12:08:56;7.75;;;5.65;;
11823;SDS011;5969;50.780;7.726;2024-01-30T12:11:24;8.35;;;5.53;;
11823;SDS011;5969;50.780;7.726;2024-01-30T12:14:14;6.13;;;5.15;;
11823;SDS011;5969;50.780;7.726;2024-01-30T12:16:41;6.10;;;4.97;;
11823;SDS011;5969;50.780;7.726;2024-01-30T12:19:09;5.50;;;4.53;;
11823;SDS011;5969;50.780;7.726;2024-01-30T12:21:37;5.35;;;4.75;;
11823;SDS011;5969;50.780;7.726;2024-01-30T12:24:15;5.65;;;4.45;;
11823;SDS011;5969;50.780;7.726;2024-01-30T12:26:42;6.25;;;4.72;;
11823;SDS011;5969;50.780;7.726;2024-01-30T12:29:10;5.93;;;4.70;;
11823;SDS011;5969;50.780;7.726;2024-01-30T12:31:37;6.18;;;5.07;;
11823;SDS011;5969;50.780;7.726;2024-01-30T12:34:13;6.78;;;4.72;;
11823;SDS011;5969;50.780;7.726;2024-01-30T12:36:42;5.85;;;4.55;;
11823;SDS011;5969;50.780;7.726;2024-01-30T12:39:10;6.47;;;4.88;;
11823;SDS011;5969;50.780;7.726;2024-01-30T12:41:40;6.95;;;5.00;;
11823;SDS011;5969;50.780;7.726;2024-01-30T12:44:08;5.90;;;4.80;;
11823;SDS011;5969;50.780;7.726;2024-01-30T12:46:35;6.72;;;4.82;;
11823;SDS011;5969;50.780;7.726;2024-01-30T12:49:05;6.25;;;4.75;;
11823;SDS011;5969;50.780;7.726;2024-01-30T12:51:33;5.53;;;4.95;;
11823;SDS011;5969;50.780;7.726;2024-01-30T12:54:04;5.78;;;5.10;;
11823;SDS011;5969;50.780;7.726;2024-01-30T12:56:32;6.43;;;4.93;;
11823;SDS011;5969;50.780;7.726;2024-01-30T12:59:01;6.18;;;5.13;;
11823;SDS011;5969;50.780;7.726;2024-01-30T13:01:28;5.25;;;4.53;;
11823;SDS011;5969;50.780;7.726;2024-01-30T13:04:04;5.57;;;4.97;;
11823;SDS011;5969;50.780;7.726;2024-01-30T13:06:31;4.90;;;4.40;;
11823;SDS011;5969;50.780;7.726;2024-01-30T13:09:01;6.00;;;4.53;;
11823;SDS011;5969;50.780;7.726;2024-01-30T13:11:28;5.75;;;4.53;;
11823;SDS011;5969;50.780;7.726;2024-01-30T13:13:55;4.43;;;4.03;;
11823;SDS011;5969;50.780;7.726;2024-01-30T13:16:24;7.65;;;4.65;;
11823;SDS011;5969;50.780;7.726;2024-01-30T13:18:51;5.80;;;4.50;;
11823;SDS011;5969;50.780;7.726;2024-01-30T13:21:20;5.88;;;4.55;;
11823;SDS011;5969;50.780;7.726;2024-01-30T13:23:47;6.05;;;4.18;;
11823;SDS011;5969;50.780;7.726;2024-01-30T13:26:18;4.82;;;4.32;;
11823;SDS011;5969;50.780;7.726;2024-01-30T13:28:45;6.05;;;4.38;;
11823;SDS011;5969;50.780;7.726;2024-01-30T13:31:12;6.00;;;4.13;;
11823;SDS011;5969;50.780;7.726;2024-01-30T13:33:41;5.38;;;4.65;;
11823;SDS011;5969;50.780;7.726;2024-01-30T13:36:09;8.00;;;4.47;;
11823;SDS011;5969;50.780;7.726;2024-01-30T13:38:37;8.45;;;5.03;;
11823;SDS011;5969;50.780;7.726;2024-01-30T13:41:07;7.20;;;4.95;;
11823;SDS011;5969;50.780;7.726;2024-01-30T13:43:36;6.43;;;4.60;;
11823;SDS011;5969;50.780;7.726;2024-01-30T13:46:04;6.38;;;4.30;;
11823;SDS011;5969;50.780;7.726;2024-01-30T13:51:15;6.53;;;4.47;;
11823;SDS011;5969;50.780;7.726;2024-01-30T13:53:43;7.43;;;4.55;;
11823;SDS011;5969;50.780;7.726;2024-01-30T13:56:10;8.05;;;5.40;;
11823;SDS011;5969;50.780;7.726;2024-01-30T13:58:37;5.82;;;5.05;;
11823;SDS011;5969;50.780;7.726;2024-01-30T14:01:04;5.57;;;4.70;;
11823;SDS011;5969;50.780;7.726;2024-01-30T14:03:32;6.05;;;4.97;;
11823;SDS011;5969;50.780;7.726;2024-01-30T14:06:01;7.80;;;5.00;;
11823;SDS011;5969;50.780;7.726;2024-01-30T14:08:30;6.50;;;5.38;;
11823;SDS011;5969;50.780;7.726;2024-01-30T14:10:57;7.57;;;5.15;;
11823;SDS011;5969;50.780;7.726;2024-01-30T14:13:25;6.30;;;4.78;;
11823;SDS011;5969;50.780;7.726;2024-01-30T14:15:56;7.18;;;5.30;;
11823;SDS011;5969;50.780;7.726;2024-01-30T14:18:23;7.65;;;4.63;;
11823;SDS011;5969;50.780;7.726;2024-01-30T14:20:52;7.05;;;5.10;;
11823;SDS011;5969;50.780;7.726;2024-01-30T14:23:23;5.97;;;4.85;;
11823;SDS011;5969;50.780;7.726;2024-01-30T14:25:59;6.38;;;5.38;;
11823;SDS011;5969;50.780;7.726;2024-01-30T14:28:26;6.05;;;4.55;;
11823;SDS011;5969;50.780;7.726;2024-01-30T14:30:53;5.88;;;4.80;;
11823;SDS011;5969;50.780;7.726;2024-01-30T14:33:22;5.38;;;4.85;;
11823;SDS011;5969;50.780;7.726;2024-01-30T14:35:50;7.03;;;4.88;;
11823;SDS011;5969;50.780;7.726;2024-01-30T14:38:18;6.53;;;4.97;;
11823;SDS011;5969;50.780;7.726;2024-01-30T14:40:45;5.32;;;4.78;;
11823;SDS011;5969;50.780;7.726;2024-01-30T14:43:16;7.22;;;5.13;;
11823;SDS011;5969;50.780;7.726;2024-01-30T14:45:47;7.55;;;5.00;;
11823;SDS011;5969;50.780;7.726;2024-01-30T14:48:15;7.00;;;4.80;;
11823;SDS011;5969;50.780;7.726;2024-01-30T14:50:42;6.03;;;5.13;;
11823;SDS011;5969;50.780;7.726;2024-01-30T14:53:09;5.78;;;4.65;;
11823;SDS011;5969;50.780;7.726;2024-01-30T14:55:36;5.50;;;4.90;;
11823;SDS011;5969;50.780;7.726;2024-01-30T14:58:03;7.10;;;4.72;;
11823;SDS011;5969;50.780;7.726;2024-01-30T15:00:32;7.78;;;5.28;;